GGOV

Osvaldo Vieira International Airport

Bissau, Guinea-Bissau
METAR GGOV 190100Z 04009KT CAVOK 21/07 Q1012 NOSIG
Observed Flight Rules
Jan-19 @ 01:00 UTC (3 hours ago) Visual Flight Rules
Wind Visibility Clouds
40° at 9 knots 10,000+ meters
  • Clear skies
Temperatures Readings
Current 21°C / 70°F
Dewpoint 7°C / 45°F
Humidity 40%
Altimeter 29.88" Hg
Pressure 1012 hPa
Elevation 36
METAR GGOV 190100Z 04009KT CAVOK 21/07 Q1012 NOSIG
Observed Flight Rules
Jan-19 @ 01:00 UTC
(3 hours ago)
VFR
Wind Visibility
40° at 9 knots 10,000+ meters
Clouds
  • Clear skies
Temperature Dewpoint
21°C / 70°F 7°C / 45°F
Humidity Altimeter Pressure
40% 29.88" Hg 1012 hPa